Time;durP1;ratioP1;P1;durP2;ratioP2;P2;SDS_P1;SDS_P2;PMS_P1;PMS_P2;Temp;Humidity;BMP_temperature;BMP_pressure;BME280_temperature;BME280_humidity;BME280_pressure;Samples;Min_cycle;Max_cycle;Signal;HPM_P1;HPM_P2
2022/11/13 00:00:32;;;;;;;37.35;20.62;;;;;;;9.32;65.09;101433.34;7804536;32;37353;-91
2022/11/13 00:04:48;;;;;;;68.82;21.83;;;;;;;9.06;65.59;101428.97;7803368;32;39428;-91
2022/11/13 00:09:04;;;;;;;80.28;21.45;;;;;;;9.09;65.77;101419.53;7803691;32;40109;-92
2022/11/13 00:13:20;;;;;;;33.65;19.90;;;;;;;8.69;67.31;101431.53;7803496;32;38452;-91
2022/11/13 00:17:43;;;;;;;37.38;21.58;;;;;;;9.06;66.11;101428.97;7802953;32;38296;-92
2022/11/13 00:22:00;;;;;;;40.53;22.02;;;;;;;9.06;66.50;101428.16;7797766;32;39701;-91
2022/11/13 00:26:19;;;;;;;41.08;21.65;;;;;;;8.92;66.94;101430.97;7793214;32;39979;-92
2022/11/13 00:30:35;;;;;;;39.08;22.00;;;;;;;9.16;66.48;101433.94;7793861;32;38796;-92
2022/11/13 00:34:51;;;;;;;42.78;23.27;;;;;;;9.30;66.04;101426.47;7795424;32;38109;-93
2022/11/13 00:39:08;;;;;;;38.83;20.83;;;;;;;9.36;65.58;101429.13;7794432;32;39240;-93
2022/11/13 00:43:25;;;;;;;35.83;21.40;;;;;;;9.23;65.67;101429.25;7797385;32;40153;-92
2022/11/13 00:47:41;;;;;;;38.90;21.42;;;;;;;9.29;64.77;101431.06;7793210;32;38165;-92
2022/11/13 00:51:59;;;;;;;41.45;22.42;;;;;;;9.16;65.34;101439.38;7793279;32;37279;-93
2022/11/13 00:56:15;;;;;;;36.28;20.88;;;;;;;8.86;66.02;101440.00;7795567;32;39379;-90
2022/11/13 01:00:32;;;;;;;35.60;20.95;;;;;;;9.17;64.60;101421.97;7780891;32;40924;-90
2022/11/13 01:04:48;;;;;;;37.00;19.80;;;;;;;9.11;64.54;101431.03;7795245;32;37916;-91
2022/11/13 01:09:05;;;;;;;82.45;23.75;;;;;;;8.92;64.72;101428.25;7797996;32;38687;-90
2022/11/13 01:13:21;;;;;;;346.50;31.87;;;;;;;8.84;64.85;101428.50;7784714;32;39407;-89
2022/11/13 01:17:37;;;;;;;111.28;23.12;;;;;;;8.81;65.60;101432.50;7795623;32;40072;-90
2022/11/13 01:21:54;;;;;;;48.13;22.52;;;;;;;8.77;65.90;101425.00;7793277;32;37953;-91
2022/11/13 01:26:16;;;;;;;45.70;20.37;;;;;;;8.69;65.70;101419.81;7794340;32;38152;-90
2022/11/13 01:30:32;;;;;;;416.15;29.85;;;;;;;8.56;66.47;101412.59;7790773;32;39319;-91
2022/11/13 01:34:48;;;;;;;86.63;21.73;;;;;;;8.76;66.33;101429.63;7793001;32;39918;-93
2022/11/13 01:39:05;;;;;;;40.45;19.77;;;;;;;8.62;67.03;101418.00;7797818;32;37993;-92
2022/11/13 01:43:26;;;;;;;37.22;21.48;;;;;;;8.56;67.38;101408.00;7784588;32;37224;-89
2022/11/13 01:47:42;;;;;;;41.75;22.77;;;;;;;8.46;68.04;101402.19;7796687;32;39535;-92
2022/11/13 01:52:05;;;;;;;41.63;24.80;;;;;;;8.62;68.08;101407.13;7793634;32;39834;-91
2022/11/13 01:56:22;;;;;;;42.90;23.30;;;;;;;8.55;69.06;101392.72;7782137;32;37796;-91
2022/11/13 02:00:38;;;;;;;36.72;22.05;;;;;;;8.49;69.45;101393.63;7796342;32;37497;-92
2022/11/13 02:04:54;;;;;;;44.25;23.33;;;;;;;8.88;68.57;101378.03;7783788;32;39518;-92
2022/11/13 02:09:11;;;;;;;47.10;25.40;;;;;;;8.80;69.14;101375.63;7793813;32;40786;-91
2022/11/13 02:13:28;;;;;;;50.20;23.60;;;;;;;8.96;69.04;101380.50;7779530;32;37702;-91
2022/11/13 02:17:50;;;;;;;68.20;23.67;;;;;;;8.56;70.58;101386.25;7793826;32;37173;-91
2022/11/13 02:22:47;;;;;;;66.63;24.17;;;;;;;9.34;67.27;101374.06;7780067;32;39375;-91
2022/11/13 02:27:07;;;;;;;444.90;35.25;;;;;;;8.88;68.45;101372.59;7793245;32;41057;-92
2022/11/13 02:31:23;;;;;;;106.25;24.05;;;;;;;8.18;71.18;101376.19;7779586;32;37832;-92
2022/11/13 02:35:40;;;;;;;187.45;25.77;;;;;;;8.80;69.47;101364.75;7793316;32;38360;-92
2022/11/13 02:39:56;;;;;;;294.17;30.98;;;;;;;8.46;70.49;101369.59;7793179;32;40065;-91
2022/11/13 02:44:12;;;;;;;234.70;28.25;;;;;;;8.76;69.85;101358.06;7792356;32;40201;-93
2022/11/13 02:48:28;;;;;;;64.90;21.90;;;;;;;8.74;69.11;101361.00;7793354;32;37974;-93
2022/11/13 02:52:45;;;;;;;68.95;22.90;;;;;;;8.70;69.55;101358.97;7793571;32;38360;-92
2022/11/13 02:57:01;;;;;;;179.45;27.08;;;;;;;8.72;69.59;101362.28;7793196;32;39609;-92
2022/11/13 03:01:17;;;;;;;54.10;22.30;;;;;;;8.42;70.61;101368.34;7794032;32;40027;-92
2022/11/13 03:05:33;;;;;;;131.63;25.15;;;;;;;8.78;69.43;101351.38;7792899;32;37788;-92
2022/11/13 03:09:50;;;;;;;81.65;23.17;;;;;;;8.46;70.57;101348.66;7793240;32;37263;-91
2022/11/13 03:14:06;;;;;;;75.10;23.60;;;;;;;8.94;69.23;101347.25;7794400;32;39531;-91
2022/11/13 03:18:22;;;;;;;46.60;21.80;;;;;;;9.16;68.63;101338.69;7794768;32;40712;-90
2022/11/13 03:22:38;;;;;;;44.47;22.35;;;;;;;9.12;69.24;101341.00;7796646;32;39087;-92
2022/11/13 03:26:54;;;;;;;67.93;23.00;;;;;;;9.27;68.75;101346.09;7780837;32;37332;-92
2022/11/13 03:31:11;;;;;;;91.85;21.92;;;;;;;9.24;68.70;101341.09;7793336;32;40114;-90
2022/11/13 03:35:28;;;;;;;74.95;24.15;;;;;;;8.94;69.58;101344.53;7796640;32;39981;-92
2022/11/13 03:39:48;;;;;;;122.60;24.90;;;;;;;9.08;68.62;101349.84;7796428;32;37874;-92
2022/11/13 03:44:04;;;;;;;66.05;22.48;;;;;;;8.93;69.06;101348.28;7798767;32;37269;-89
2022/11/13 03:48:20;;;;;;;33.25;20.25;;;;;;;8.96;68.55;101344.31;7789181;32;40389;-89
2022/11/13 03:52:37;;;;;;;35.17;20.05;;;;;;;9.39;66.65;101333.41;7802927;32;40092;-90
2022/11/13 03:56:53;;;;;;;41.70;21.45;;;;;;;9.11;66.85;101341.25;7802665;32;38821;-88
2022/11/13 04:01:09;;;;;;;40.45;21.65;;;;;;;9.25;66.53;101340.06;7802650;32;37735;-88
2022/11/13 04:05:25;;;;;;;59.97;22.00;;;;;;;8.86;67.83;101352.97;7788051;32;39589;-91
2022/11/13 04:09:41;;;;;;;99.90;22.25;;;;;;;8.96;67.91;101339.69;7794880;32;40298;-91
2022/11/13 04:13:58;;;;;;;92.95;23.70;;;;;;;8.99;68.36;101347.41;7793384;32;37800;-92
2022/11/13 04:18:14;;;;;;;55.05;21.45;;;;;;;9.36;66.36;101352.91;7800560;32;37167;-91
2022/11/13 04:22:30;;;;;;;45.17;21.75;;;;;;;9.14;67.32;101340.78;7802210;32;39678;-91
2022/11/13 04:26:46;;;;;;;36.45;21.50;;;;;;;9.00;68.13;101342.78;7797573;32;40093;-90
2022/11/13 04:31:03;;;;;;;58.65;20.15;;;;;;;8.88;68.55;101345.41;7799445;32;38415;-90
2022/11/13 04:35:19;;;;;;;56.72;19.90;;;;;;;9.19;67.03;101352.69;7797710;32;37252;-89
2022/11/13 04:39:35;;;;;;;52.42;17.80;;;;;;;8.77;67.38;101362.47;7801199;32;39490;-89
2022/11/13 04:43:51;;;;;;;42.33;20.52;;;;;;;8.73;67.39;101345.75;7800297;32;40616;-90
2022/11/13 04:48:07;;;;;;;52.53;20.88;;;;;;;8.72;67.12;101346.81;7799149;32;38230;-91
2022/11/13 04:52:24;;;;;;;43.47;20.45;;;;;;;8.79;67.22;101344.03;7786382;32;37752;-92
2022/11/13 04:56:40;;;;;;;85.38;19.52;;;;;;;8.57;68.08;101341.72;7784610;32;39524;-92
2022/11/13 05:00:56;;;;;;;64.95;21.35;;;;;;;8.55;68.55;101329.38;7799694;32;40037;-90
2022/11/13 05:05:12;;;;;;;103.80;21.90;;;;;;;8.78;68.10;101340.50;7801355;32;38156;-89
2022/11/13 05:09:28;;;;;;;52.62;19.27;;;;;;;8.43;68.77;101345.56;7802706;32;37332;-91
2022/11/13 05:13:45;;;;;;;43.85;18.05;;;;;;;8.62;68.35;101336.44;7799616;32;39447;-90
2022/11/13 05:18:01;;;;;;;48.00;19.12;;;;;;;8.78;68.23;101339.66;7804648;32;40261;-92
2022/11/13 05:22:17;;;;;;;96.35;20.05;;;;;;;8.98;67.49;101337.56;7794931;32;38120;-92
2022/11/13 05:26:35;;;;;;;133.98;21.25;;;;;;;8.76;68.19;101341.75;7793853;32;38589;-92
2022/11/13 05:30:51;;;;;;;53.78;18.67;;;;;;;8.82;68.27;101340.88;7793842;32;38411;-92
2022/11/13 05:35:08;;;;;;;51.45;19.00;;;;;;;9.06;67.68;101338.37;7793736;32;39713;-92
2022/11/13 05:39:24;;;;;;;159.30;21.90;;;;;;;8.69;69.00;101336.38;7793167;32;37818;-92
2022/11/13 05:43:41;;;;;;;80.05;18.70;;;;;;;8.55;69.16;101351.13;7793358;32;38229;-91
2022/11/13 05:47:57;;;;;;;93.90;19.15;;;;;;;8.72;68.22;101341.38;7793377;32;40142;-91
2022/11/13 05:52:13;;;;;;;34.90;16.55;;;;;;;8.98;66.93;101340.28;7793400;32;39889;-91
2022/11/13 05:56:33;;;;;;;39.20;16.55;;;;;;;8.56;68.46;101334.59;7793411;32;38534;-91
2022/11/13 06:00:49;;;;;;;66.72;17.00;;;;;;;8.64;68.33;101339.75;7793498;32;37074;-91
2022/11/13 06:05:06;;;;;;;74.47;17.12;;;;;;;8.85;67.47;101335.00;7779175;32;39278;-91
2022/11/13 06:09:22;;;;;;;61.05;15.73;;;;;;;8.70;67.76;101345.37;7793175;32;40107;-91
2022/11/13 06:13:39;;;;;;;110.97;17.10;;;;;;;8.87;66.80;101348.38;7778970;32;38768;-90
2022/11/13 06:17:55;;;;;;;81.68;18.00;;;;;;;8.70;66.86;101353.53;7793171;32;37172;-91
2022/11/13 06:22:11;;;;;;;53.35;16.52;;;;;;;8.23;68.04;101346.50;7792102;32;39547;-91
2022/11/13 06:26:30;;;;;;;103.25;18.85;;;;;;;8.30;68.40;101348.34;7792725;32;40667;-91
2022/11/13 06:30:46;;;;;;;51.33;16.37;;;;;;;8.54;67.62;101355.72;7779282;32;38771;-90
2022/11/13 06:35:03;;;;;;;39.15;16.20;;;;;;;8.51;67.36;101356.16;7778921;32;37372;-90
2022/11/13 06:39:19;;;;;;;100.47;17.65;;;;;;;8.63;67.64;101356.28;7792815;32;39959;-91
2022/11/13 06:43:35;;;;;;;222.15;22.37;;;;;;;8.63;67.59;101348.13;7792674;32;40846;-92
2022/11/13 06:47:54;;;;;;;297.33;23.33;;;;;;;8.57;68.21;101343.56;7792507;32;38493;-91
2022/11/13 06:52:10;;;;;;;64.80;16.58;;;;;;;8.72;67.77;101351.41;7794870;32;37370;-94
2022/11/13 06:56:26;;;;;;;246.13;23.23;;;;;;;8.68;68.08;101351.03;7799723;32;39551;-94
2022/11/13 07:00:43;;;;;;;195.85;21.25;;;;;;;8.87;67.66;101357.34;7793967;32;40024;-92
2022/11/13 07:04:59;;;;;;;226.05;21.73;;;;;;;8.77;67.91;101352.41;7791976;32;39379;-86
2022/11/13 07:09:15;;;;;;;37.00;15.07;;;;;;;8.30;69.86;101370.09;7793336;32;37084;-89
2022/11/13 07:13:32;;;;;;;85.87;17.60;;;;;;;8.76;70.08;101352.63;7778693;32;39287;-92
2022/11/13 07:17:48;;;;;;;38.08;15.05;;;;;;;8.37;71.17;101366.25;7771661;32;40992;-86
2022/11/13 07:22:04;;;;;;;79.12;16.00;;;;;;;8.94;69.02;101366.28;7791799;32;37902;-87
2022/11/13 07:26:20;;;;;;;66.00;14.55;;;;;;;8.93;68.06;101361.91;7792020;32;38006;-88
2022/11/13 07:30:36;;;;;;;61.13;16.70;;;;;;;9.06;67.46;101349.25;7790608;32;39464;-87
2022/11/13 07:34:53;;;;;;;55.45;14.55;;;;;;;8.98;67.51;101358.50;7791066;32;40767;-90
2022/11/13 07:39:09;;;;;;;33.88;15.18;;;;;;;9.13;67.51;101350.84;7791293;32;38074;-91
2022/11/13 07:43:25;;;;;;;48.08;16.35;;;;;;;9.50;66.59;101358.22;7791678;32;37970;-91
2022/11/13 07:47:41;;;;;;;32.85;15.63;;;;;;;8.78;68.65;101364.12;7791654;32;39079;-88
2022/11/13 07:51:58;;;;;;;112.90;16.58;;;;;;;9.23;68.35;101353.06;7791988;32;40499;-87
2022/11/13 07:56:14;;;;;;;80.82;16.90;;;;;;;9.38;67.76;101367.16;7791711;32;37934;-86
2022/11/13 08:00:37;;;;;;;63.90;16.62;;;;;;;9.13;69.11;101366.34;7792658;32;37329;-88
2022/11/13 08:04:53;;;;;;;151.25;20.30;;;;;;;9.49;68.22;101372.91;7791750;32;39138;-88
2022/11/13 08:09:10;;;;;;;37.58;17.67;;;;;;;9.28;68.25;101369.56;7791707;32;39689;-93
2022/11/13 08:13:26;;;;;;;214.93;21.62;;;;;;;9.25;68.70;101375.44;7791544;32;38673;-92
2022/11/13 08:17:42;;;;;;;436.80;30.92;;;;;;;8.79;70.22;101369.34;7791654;32;38266;-91
2022/11/13 08:21:58;;;;;;;132.32;20.80;;;;;;;8.21;72.06;101380.34;7791269;32;39262;-89
2022/11/13 08:26:15;;;;;;;134.30;20.17;;;;;;;9.09;70.36;101379.56;7806345;32;40767;-87
2022/11/13 08:30:31;;;;;;;47.05;15.57;;;;;;;9.10;69.93;101364.06;7784922;32;37979;-89
2022/11/13 08:34:47;;;;;;;205.65;21.42;;;;;;;8.77;71.15;101357.03;7777776;32;37941;-87
2022/11/13 08:39:03;;;;;;;103.00;18.52;;;;;;;8.43;71.77;101367.28;7791416;32;40114;-88
2022/11/13 08:43:19;;;;;;;165.45;21.10;;;;;;;8.72;71.57;101357.69;7789940;32;40660;-88
2022/11/13 08:47:36;;;;;;;148.15;20.80;;;;;;;8.84;71.72;101350.47;7790592;32;37739;-91
2022/11/13 08:51:52;;;;;;;508.80;33.78;;;;;;;9.03;71.69;101348.63;7790848;32;37344;-92
2022/11/13 08:56:08;;;;;;;203.62;23.02;;;;;;;8.58;72.75;101356.13;7790482;32;40169;-92
2022/11/13 09:00:25;;;;;;;459.75;32.67;;;;;;;8.59;73.29;101352.37;7790412;32;40807;-92
2022/11/13 09:04:41;;;;;;;379.08;29.48;;;;;;;8.73;72.71;101347.66;7790401;32;38667;-93
2022/11/13 09:08:57;;;;;;;316.90;25.98;;;;;;;9.27;70.13;101354.25;7776199;32;37105;-91
2022/11/13 09:13:14;;;;;;;124.85;20.50;;;;;;;8.71;71.49;101355.19;7789972;32;39022;-91
2022/11/13 09:17:30;;;;;;;194.25;23.38;;;;;;;9.01;71.72;101353.47;7789486;32;39883;-92
2022/11/13 09:21:46;;;;;;;161.25;19.62;;;;;;;8.79;71.82;101358.44;7788909;32;37671;-91
2022/11/13 09:26:02;;;;;;;128.50;21.62;;;;;;;9.21;71.42;101345.13;7774680;32;37302;-91
2022/11/13 09:30:19;;;;;;;419.50;29.67;;;;;;;9.49;71.63;101348.41;7762881;32;40237;-88
2022/11/13 09:34:35;;;;;;;133.60;21.67;;;;;;;8.69;74.00;101347.25;7762751;32;39898;-87
2022/11/13 09:38:51;;;;;;;361.58;28.58;;;;;;;9.28;73.32;101344.19;7762575;32;38756;-89
2022/11/13 09:43:33;;;;;;;158.15;22.15;;;;;;;8.87;75.00;101341.03;7762373;32;38223;-93
2022/11/13 09:47:51;;;;;;;183.77;21.98;;;;;;;9.52;71.82;101334.31;7761295;32;39329;-93
2022/11/13 09:52:30;;;;;;;87.53;18.23;;;;;;;9.12;71.31;101330.12;7762143;32;38691;-93
2022/11/13 09:57:09;;;;;;;352.85;28.83;;;;;;;9.43;71.46;101330.22;7765149;32;38055;-92
2022/11/13 10:01:59;;;;;;;344.87;28.70;;;;;;;8.84;72.69;101327.88;7765492;32;37280;-93
2022/11/13 10:06:46;;;;;;;132.98;20.73;;;;;;;9.62;71.33;101310.09;7770252;32;39297;-95
2022/11/13 10:11:12;;;;;;;387.10;28.35;;;;;;;10.08;70.26;101305.13;7767523;32;39950;-94
2022/11/13 10:15:29;;;;;;;81.85;19.15;;;;;;;9.86;69.53;101302.88;7765420;32;37908;-94
2022/11/13 10:19:52;;;;;;;371.60;28.15;;;;;;;10.18;69.36;101288.22;7766150;32;37058;-92
2022/11/13 10:24:24;;;;;;;320.63;28.08;;;;;;;9.93;69.62;101286.44;7764883;32;39354;-91
2022/11/13 10:28:40;;;;;;;196.32;22.25;;;;;;;10.04;69.85;101285.69;7764650;32;39858;-91
2022/11/13 10:33:12;;;;;;;151.77;22.55;;;;;;;10.33;69.26;101277.72;7764605;32;37966;-91
2022/11/13 10:38:15;;;;;;;95.28;19.37;;;;;;;10.04;70.61;101277.50;7765648;32;37228;-91
2022/11/13 10:42:41;;;;;;;106.53;20.83;;;;;;;10.05;70.52;101262.81;7765807;32;39774;-92
2022/11/13 10:47:13;;;;;;;55.35;19.40;;;;;;;10.02;70.78;101263.28;7765315;32;39944;-92
2022/11/13 10:51:33;;;;;;;45.33;19.12;;;;;;;10.55;69.78;101247.19;7764262;32;39216;-92
2022/11/13 10:55:52;;;;;;;49.78;21.08;;;;;;;11.07;68.43;101225.44;7765898;32;37206;-95
2022/11/13 11:00:25;;;;;;;38.33;19.27;;;;;;;11.19;68.23;101215.34;7779783;32;39838;-94
2022/11/13 11:04:41;;;;;;;114.47;23.50;;;;;;;10.99;68.37;101236.75;7780770;32;40070;-94
2022/11/13 11:09:20;;;;;;;178.82;23.12;;;;;;;10.98;67.19;101219.50;7793131;32;37919;-94
2022/11/13 11:13:36;;;;;;;249.90;27.08;;;;;;;10.46;68.98;101225.69;7793694;32;37439;-94
2022/11/13 11:17:59;;;;;;;44.85;21.12;;;;;;;10.46;69.77;101222.97;7793236;32;40172;-94
2022/11/13 11:22:17;;;;;;;100.70;22.37;;;;;;;11.04;68.81;101221.31;7779682;32;41393;-94
2022/11/13 11:26:53;;;;;;;65.40;23.98;;;;;;;11.23;67.49;101213.78;7785139;32;250798;-93
2022/11/13 11:31:47;;;;;;;222.23;29.70;;;;;;;11.02;68.64;101212.53;7780249;32;37344;-90
2022/11/13 11:36:20;;;;;;;60.10;24.27;;;;;;;10.31;70.81;101206.22;7766019;32;39855;-93
2022/11/13 11:40:42;;;;;;;43.40;23.98;;;;;;;10.55;70.14;101207.09;7783122;32;39796;-93
2022/11/13 11:45:11;;;;;;;65.05;24.20;;;;;;;11.33;68.17;101206.84;7782144;32;37930;-93
2022/11/13 11:49:28;;;;;;;93.72;22.25;;;;;;;11.07;68.91;101203.59;7795019;32;37518;-93
2022/11/13 11:53:50;;;;;;;94.78;25.02;;;;;;;10.71;69.18;101198.22;7793220;32;39321;-94
2022/11/13 11:58:06;;;;;;;72.57;25.23;;;;;;;9.62;74.11;101190.28;7793560;32;39918;-94
2022/11/13 12:02:34;;;;;;;52.20;23.45;;;;;;;11.08;69.48;101177.97;7795421;32;37951;-93
2022/11/13 12:06:59;;;;;;;50.63;24.17;;;;;;;10.75;70.08;101182.19;7793452;32;37480;-88
2022/11/13 12:11:32;;;;;;;55.78;24.23;;;;;;;10.95;69.75;101170.91;7792188;32;39318;-94
2022/11/13 12:16:18;;;;;;;107.12;26.60;;;;;;;10.56;71.09;101175.22;7793950;32;40079;-95
2022/11/13 12:21:04;;;;;;;75.57;24.77;;;;;;;10.76;70.34;101162.00;7789713;32;38448;-90
2022/11/13 12:26:04;;;;;;;45.20;25.05;;;;;;;10.79;70.57;101153.34;7765768;32;37255;-94
2022/11/13 12:30:29;;;;;;;49.85;25.88;;;;;;;10.82;71.27;101143.88;7678813;32;39566;-91
2022/11/13 12:35:29;;;;;;;106.50;26.20;;;;;;;10.75;70.90;101141.28;7735840;32;39940;-91
2022/11/13 12:40:18;;;;;;;48.87;25.17;;;;;;;10.65;71.45;101136.41;7731416;32;38527;-92
2022/11/13 12:44:50;;;;;;;86.57;25.60;;;;;;;11.23;69.96;101129.16;7751551;32;38225;-92
2022/11/13 12:49:26;;;;;;;75.25;26.35;;;;;;;10.46;72.25;101122.09;7790219;32;39565;-93
2022/11/13 12:53:53;;;;;;;46.75;24.33;;;;;;;10.81;71.21;101118.47;7790486;32;39849;-94
2022/11/13 12:58:28;;;;;;;45.40;23.20;;;;;;;11.98;67.98;101102.63;7791255;32;37891;-94
2022/11/13 13:03:22;;;;;;;38.78;22.25;;;;;;;12.60;65.52;101089.84;7790655;32;37336;-92
2022/11/13 13:07:47;;;;;;;38.70;21.95;;;;;;;13.31;62.37;101086.28;7790672;32;40100;-87
2022/11/13 13:12:36;;;;;;;37.30;18.92;;;;;;;14.50;59.33;101083.38;7790298;32;39610;-90
2022/11/13 13:17:03;;;;;;;36.42;19.02;;;;;;;15.16;57.42;101071.88;7775009;32;38750;-90
2022/11/13 13:21:20;;;;;;;30.05;17.27;;;;;;;14.65;57.07;101074.44;7792520;32;37171;-91
2022/11/13 13:25:37;;;;;;;34.35;20.25;;;;;;;14.95;56.68;101073.72;7790395;32;39433;-92
2022/11/13 13:29:53;;;;;;;32.38;18.80;;;;;;;14.01;58.66;101075.41;7791576;32;39952;-92
2022/11/13 13:34:26;;;;;;;33.17;19.45;;;;;;;14.53;57.41;101076.53;7779600;32;37760;-93
2022/11/13 13:39:01;;;;;;;32.97;18.70;;;;;;;14.98;56.37;101064.13;7793508;32;37978;-92
2022/11/13 13:43:17;;;;;;;36.80;19.77;;;;;;;15.65;54.86;101065.03;7793673;32;40534;-93
2022/11/13 13:47:42;;;;;;;29.90;19.05;;;;;;;16.31;52.93;101049.56;7792642;32;39696;-92
2022/11/13 13:51:58;;;;;;;33.50;19.37;;;;;;;16.86;50.83;101044.97;7780174;32;38724;-94
2022/11/13 13:56:14;;;;;;;31.92;18.08;;;;;;;18.69;46.33;101033.72;7793211;32;37947;-93
2022/11/13 14:00:31;;;;;;;28.92;17.73;;;;;;;18.11;46.83;101040.16;7793350;32;40098;-94
2022/11/13 14:04:50;;;;;;;29.00;16.58;;;;;;;20.48;41.07;101029.13;7779733;32;40674;-94
2022/11/13 14:09:09;;;;;;;25.40;16.77;;;;;;;21.57;38.27;101023.63;7779733;32;38063;-92
2022/11/13 14:13:27;;;;;;;26.90;16.98;;;;;;;22.01;37.71;101021.94;7779876;32;38039;-90
2022/11/13 14:17:43;;;;;;;28.12;17.73;;;;;;;22.01;37.15;101015.56;7793039;32;40519;-92
2022/11/13 14:22:02;;;;;;;28.45;17.45;;;;;;;22.05;37.04;101017.38;7777659;32;40886;-94
2022/11/13 14:26:19;;;;;;;26.87;17.58;;;;;;;22.26;36.66;101016.81;7779760;32;38167;-92
2022/11/13 14:30:35;;;;;;;27.17;16.90;;;;;;;21.37;38.27;101017.44;7793877;32;37186;-94
2022/11/13 14:34:53;;;;;;;26.80;17.00;;;;;;;21.30;38.41;101019.00;7784543;32;40060;-94
2022/11/13 14:39:21;;;;;;;28.45;18.73;;;;;;;21.01;39.16;101021.06;7782415;32;40767;-93
2022/11/13 14:43:47;;;;;;;28.35;18.75;;;;;;;19.92;41.34;101031.88;7765785;32;37988;-94
2022/11/13 14:48:18;;;;;;;28.90;18.25;;;;;;;18.84;43.88;101027.19;7792317;32;37306;-95
2022/11/13 14:52:34;;;;;;;29.45;16.87;;;;;;;18.41;45.08;101038.22;7780466;32;39258;-95
2022/11/13 14:56:51;;;;;;;28.50;18.05;;;;;;;18.15;45.60;101035.72;7780034;32;40918;-96
2022/11/13 15:01:22;;;;;;;29.05;18.73;;;;;;;17.32;47.27;101030.09;7794249;32;38108;-95
2022/11/13 15:05:38;;;;;;;32.63;21.25;;;;;;;16.30;50.54;101031.44;7780185;32;37218;-95
2022/11/13 15:09:55;;;;;;;27.00;16.83;;;;;;;15.98;51.51;101035.34;7795103;32;40077;-96
2022/11/13 15:14:16;;;;;;;31.25;18.48;;;;;;;15.26;52.83;101040.81;7794504;32;39892;-95
2022/11/13 15:18:32;;;;;;;30.75;18.65;;;;;;;14.67;53.53;101044.78;7780893;32;36987;-95
2022/11/13 15:22:53;;;;;;;32.05;17.67;;;;;;;14.56;54.07;101043.91;7779860;32;37398;-95
2022/11/13 15:27:18;;;;;;;31.62;17.95;;;;;;;14.03;55.40;101043.06;7780332;32;40559;-95
2022/11/13 15:31:37;;;;;;;30.55;18.05;;;;;;;13.52;55.53;101041.59;7779729;32;39802;-94
2022/11/13 15:35:53;;;;;;;30.92;19.75;;;;;;;13.37;55.85;101036.00;7779551;32;38392;-95
2022/11/13 15:40:10;;;;;;;35.88;20.23;;;;;;;13.28;56.03;101037.50;7779289;32;37194;-95
2022/11/13 15:44:27;;;;;;;46.67;25.67;;;;;;;12.76;57.82;101028.78;7792807;32;40085;-95
2022/11/13 15:48:47;;;;;;;40.45;21.70;;;;;;;12.88;57.41;101031.38;7792363;32;39852;-95
2022/11/13 15:53:04;;;;;;;32.30;17.42;;;;;;;12.30;61.29;101027.37;7777988;32;37781;-94
2022/11/13 15:57:24;;;;;;;28.00;16.00;;;;;;;12.20;60.02;101017.94;7791929;32;38271;-94
2022/11/13 16:01:40;;;;;;;25.77;15.40;;;;;;;12.00;59.70;101014.91;7778875;32;40009;-94
2022/11/13 16:06:00;;;;;;;39.65;18.95;;;;;;;11.73;59.95;101026.53;7778206;32;39823;-93
2022/11/13 16:10:16;;;;;;;30.77;18.40;;;;;;;11.81;60.34;101028.84;7791776;32;37845;-95
2022/11/13 16:14:33;;;;;;;37.67;20.12;;;;;;;11.70;60.11;101024.28;7778321;32;37307;-94
2022/11/13 16:18:49;;;;;;;34.15;19.15;;;;;;;11.58;60.51;101029.00;7791873;32;39367;-93
2022/11/13 16:23:15;;;;;;;29.83;18.23;;;;;;;11.48;60.68;101032.38;7792069;32;39570;-94
2022/11/13 16:27:35;;;;;;;36.17;18.42;;;;;;;11.18;61.20;101036.25;7778271;32;37833;-94
2022/11/13 16:31:51;;;;;;;29.87;15.75;;;;;;;10.88;61.88;101033.78;7791816;32;37390;-94
2022/11/13 16:36:21;;;;;;;31.58;15.63;;;;;;;10.65;62.86;101029.25;7791496;32;39154;-92
2022/11/13 16:40:40;;;;;;;22.77;12.80;;;;;;;11.27;60.52;101017.56;7777224;32;40886;-93
2022/11/13 16:44:56;;;;;;;25.15;12.45;;;;;;;11.17;60.91;101026.41;7791110;32;37906;-94
2022/11/13 16:49:18;;;;;;;29.65;15.07;;;;;;;11.14;60.79;101021.44;7776983;32;37136;-93
2022/11/13 16:53:34;;;;;;;27.87;15.48;;;;;;;10.93;61.17;101027.59;7777590;32;39277;-94
2022/11/13 16:57:50;;;;;;;34.40;18.40;;;;;;;10.93;61.30;101033.03;7791796;32;39820;-92
2022/11/13 17:02:14;;;;;;;27.92;15.25;;;;;;;10.85;61.90;101031.56;7791978;32;38160;-92
2022/11/13 17:06:33;;;;;;;28.73;16.17;;;;;;;10.73;62.25;101028.88;7797183;32;37515;-92
2022/11/13 17:10:58;;;;;;;33.63;17.90;;;;;;;10.14;63.33;101010.72;7801572;32;38566;-92
2022/11/13 17:15:14;;;;;;;30.45;16.65;;;;;;;10.39;63.21;101008.81;7798743;32;40152;-90
2022/11/13 17:19:31;;;;;;;32.42;17.35;;;;;;;10.27;64.17;101009.63;7793819;32;37963;-92
2022/11/13 17:24:10;;;;;;;35.60;17.60;;;;;;;10.43;64.65;101007.25;7783993;32;37293;-94
2022/11/13 17:28:27;;;;;;;31.67;18.02;;;;;;;10.32;65.73;101017.13;7767575;32;39236;-92
2022/11/13 17:32:43;;;;;;;44.78;21.02;;;;;;;10.32;65.52;101014.38;7769447;32;41000;-91
2022/11/13 17:37:00;;;;;;;39.60;22.58;;;;;;;9.69;67.19;101022.22;7768218;32;38004;-88
2022/11/13 17:41:17;;;;;;;42.50;23.98;;;;;;;10.17;65.36;101009.41;7768590;32;37220;-89
2022/11/13 17:45:37;;;;;;;41.95;21.62;;;;;;;10.13;64.54;101008.22;7754361;32;40112;-91
2022/11/13 17:49:54;;;;;;;32.92;19.27;;;;;;;10.03;63.93;101016.16;7758491;32;39965;-92
2022/11/13 17:54:10;;;;;;;36.35;19.17;;;;;;;10.13;63.26;101003.59;7793822;32;38785;-91
2022/11/13 17:58:27;;;;;;;42.78;20.52;;;;;;;9.90;62.51;101009.06;7794740;32;38097;-92
2022/11/13 18:02:45;;;;;;;89.57;24.10;;;;;;;9.26;65.39;101014.31;7794787;32;39277;-92
2022/11/13 18:07:01;;;;;;;46.88;23.62;;;;;;;9.38;64.48;101021.47;7793451;32;40025;-92
2022/11/13 18:11:23;;;;;;;34.33;19.83;;;;;;;8.97;65.55;101016.87;7792620;32;37802;-90
2022/11/13 18:15:40;;;;;;;35.88;18.85;;;;;;;9.40;64.40;101016.63;7795046;32;37057;-88
2022/11/13 18:19:56;;;;;;;29.63;17.73;;;;;;;9.45;64.44;101015.06;7794109;32;40314;-89
2022/11/13 18:24:18;;;;;;;30.05;17.42;;;;;;;9.40;65.07;101010.34;7798081;32;39837;-93
2022/11/13 18:28:34;;;;;;;119.22;22.83;;;;;;;9.36;64.68;101015.41;7794852;32;37935;-90
2022/11/13 18:32:51;;;;;;;41.33;19.83;;;;;;;8.34;66.25;101028.94;7795254;32;37809;-91
2022/11/13 18:37:07;;;;;;;75.85;19.85;;;;;;;8.62;66.53;101015.66;7793531;32;40341;-89
2022/11/13 18:41:23;;;;;;;60.88;18.67;;;;;;;8.59;66.63;101007.13;7793389;32;40725;-92
2022/11/13 18:45:39;;;;;;;323.58;27.25;;;;;;;8.49;67.03;101007.66;7792919;32;36441;-90
2022/11/13 18:49:57;;;;;;;150.30;21.87;;;;;;;8.50;66.23;101022.91;7779558;32;38059;-92
2022/11/13 18:54:13;;;;;;;31.08;17.83;;;;;;;8.50;65.95;101028.31;7786964;32;39265;-93
2022/11/13 18:58:36;;;;;;;38.00;18.77;;;;;;;8.41;66.41;101021.53;7773219;32;40824;-93
2022/11/13 19:02:56;;;;;;;42.70;20.52;;;;;;;8.54;66.08;101015.97;7772276;32;38180;-92
2022/11/13 19:07:13;;;;;;;42.30;20.95;;;;;;;8.82;66.03;101018.09;7773109;32;38362;-93
2022/11/13 19:11:31;;;;;;;36.47;19.05;;;;;;;8.89;66.97;101026.16;7783613;32;38844;-93
2022/11/13 19:15:48;;;;;;;58.63;20.00;;;;;;;8.19;67.68;101030.13;7768924;32;40744;-92
2022/11/13 19:20:06;;;;;;;37.08;19.27;;;;;;;8.48;66.38;101022.28;7769955;32;37577;-92
2022/11/13 19:24:22;;;;;;;191.12;22.15;;;;;;;8.32;66.30;101028.31;7779498;32;38126;-90
2022/11/13 19:28:39;;;;;;;34.70;19.58;;;;;;;8.53;65.10;101032.50;7793567;32;38808;-91
2022/11/13 19:32:55;;;;;;;102.07;23.12;;;;;;;8.32;65.53;101037.28;7793415;32;40907;-92
2022/11/13 19:37:11;;;;;;;374.75;30.80;;;;;;;8.40;65.89;101033.44;7782204;32;37895;-91
2022/11/13 19:41:33;;;;;;;282.05;26.80;;;;;;;8.37;66.48;101031.19;7804437;32;37339;-93
2022/11/13 19:45:50;;;;;;;211.20;25.42;;;;;;;8.18;67.62;101030.34;7794918;32;38982;-95